createdAt,value
2022-09-03T00:00:12.912Z,1.38
2022-09-03T00:01:44.308Z,1.18
2022-09-03T00:03:15.669Z,1.24
2022-09-03T00:04:46.973Z,1.26
2022-09-03T00:06:18.705Z,1.35
2022-09-03T00:07:50.106Z,1.31
2022-09-03T00:09:22.209Z,1.24
2022-09-03T00:10:55.346Z,1.21
2022-09-03T00:12:27.472Z,1.26
2022-09-03T00:13:58.779Z,1.34
2022-09-03T00:15:30.186Z,1.18
2022-09-03T00:17:01.486Z,1.34
2022-09-03T00:18:32.794Z,1.22
2022-09-03T00:20:04.176Z,1.20
2022-09-03T00:21:35.507Z,1.20
2022-09-03T00:23:07.083Z,1.25
2022-09-03T00:24:38.586Z,1.45
2022-09-03T00:26:09.861Z,1.33
2022-09-03T00:27:41.387Z,1.14
2022-09-03T00:29:17.705Z,1.06
2022-09-03T00:30:49.662Z,1.21
2022-09-03T00:32:21.288Z,1.17
2022-09-03T00:33:52.615Z,1.12
2022-09-03T00:35:23.919Z,1.18
2022-09-03T00:36:55.558Z,1.41
2022-09-03T00:38:27.000Z,1.24
2022-09-03T00:39:58.416Z,1.09
2022-09-03T00:41:29.961Z,1.22
2022-09-03T00:43:01.385Z,1.23
2022-09-03T00:44:32.772Z,1.05
2022-09-03T00:46:04.133Z,1.15
2022-09-03T00:47:35.500Z,1.10
2022-09-03T00:49:07.048Z,1.25
2022-09-03T00:50:38.581Z,1.15
2022-09-03T00:52:10.102Z,1.14
2022-09-03T00:53:41.428Z,1.15
2022-09-03T00:55:12.797Z,1.06
2022-09-03T00:56:44.116Z,1.30
2022-09-03T00:58:15.750Z,1.25
2022-09-03T00:59:47.132Z,1.08
2022-09-03T01:01:18.752Z,1.04
2022-09-03T01:02:50.302Z,1.16
2022-09-03T01:04:21.738Z,1.06
2022-09-03T01:05:53.013Z,1.19
2022-09-03T01:07:24.426Z,1.24
2022-09-03T01:08:56.020Z,1.08
2022-09-03T01:10:27.313Z,1.11
2022-09-03T01:11:58.893Z,1.07
2022-09-03T01:13:30.236Z,1.10
2022-09-03T01:15:01.831Z,1.13
2022-09-03T01:16:33.256Z,1.07
2022-09-03T01:18:04.592Z,0.96
2022-09-03T01:19:35.905Z,0.96
2022-09-03T01:21:07.458Z,1.07
2022-09-03T01:22:38.757Z,1.21
2022-09-03T01:24:12.103Z,1.22
2022-09-03T01:25:43.544Z,1.18
2022-09-03T01:27:15.037Z,1.07
2022-09-03T01:28:46.400Z,1.03
2022-09-03T01:30:17.758Z,0.96
2022-09-03T01:31:49.135Z,1.30
2022-09-03T01:33:20.456Z,1.01
2022-09-03T01:34:51.818Z,1.06
2022-09-03T01:36:23.209Z,1.11
2022-09-03T01:37:55.823Z,1.08
2022-09-03T01:39:27.229Z,1.08
2022-09-03T01:40:58.589Z,1.04
2022-09-03T01:42:29.903Z,1.03
2022-09-03T01:44:01.398Z,1.03
2022-09-03T01:45:32.660Z,0.91
2022-09-03T01:47:03.991Z,0.94
2022-09-03T01:48:35.335Z,1.24
2022-09-03T01:50:06.815Z,1.08
2022-09-03T01:51:38.233Z,1.06
2022-09-03T01:53:09.634Z,1.05
2022-09-03T01:54:41.031Z,1.11
2022-09-03T01:56:12.351Z,1.14
2022-09-03T01:57:43.749Z,1.03
2022-09-03T01:59:15.306Z,1.15
2022-09-03T02:00:46.630Z,1.05
2022-09-03T02:02:18.026Z,0.98
2022-09-03T02:03:49.844Z,0.95
2022-09-03T02:05:21.270Z,1.13
2022-09-03T02:06:52.634Z,1.03
2022-09-03T02:08:24.218Z,0.97
2022-09-03T02:09:56.250Z,1.01
2022-09-03T02:11:27.538Z,1.22
2022-09-03T02:12:59.052Z,1.00
2022-09-03T02:14:30.466Z,0.94
2022-09-03T02:16:01.993Z,1.09
2022-09-03T02:17:33.573Z,1.00
2022-09-03T02:19:05.163Z,1.04
2022-09-03T02:20:36.592Z,1.08
2022-09-03T02:22:07.969Z,0.97
2022-09-03T02:23:39.561Z,1.16
2022-09-03T02:25:10.936Z,1.12
2022-09-03T02:26:42.264Z,1.05
2022-09-03T02:28:17.356Z,1.02
2022-09-03T02:29:49.217Z,1.05
2022-09-03T02:31:20.749Z,1.08
2022-09-03T02:32:52.291Z,1.05
2022-09-03T02:34:23.613Z,0.99
2022-09-03T02:35:55.032Z,0.99
2022-09-03T02:37:26.412Z,1.00
2022-09-03T02:38:57.692Z,1.04
2022-09-03T02:40:29.025Z,0.94
2022-09-03T02:42:00.547Z,0.95
2022-09-03T02:43:31.906Z,1.04
2022-09-03T02:45:03.203Z,1.01
2022-09-03T02:46:34.689Z,1.06
2022-09-03T02:48:06.145Z,1.05
2022-09-03T02:49:37.672Z,0.93
2022-09-03T02:51:13.602Z,0.95
2022-09-03T02:52:45.421Z,1.00
2022-09-03T02:54:20.332Z,0.94
2022-09-03T02:55:52.467Z,0.97
2022-09-03T02:57:27.720Z,1.00
2022-09-03T02:58:59.272Z,1.04
2022-09-03T03:00:30.650Z,1.02
2022-09-03T03:02:01.979Z,0.93
2022-09-03T03:03:33.512Z,1.02
2022-09-03T03:05:04.828Z,1.17
2022-09-03T03:06:36.199Z,0.94
2022-09-03T03:08:07.671Z,0.99
2022-09-03T03:09:39.105Z,1.14
2022-09-03T03:11:10.526Z,1.01
2022-09-03T03:12:41.920Z,1.05
2022-09-03T03:14:13.297Z,0.97
2022-09-03T03:15:44.597Z,0.99
2022-09-03T03:17:16.005Z,1.14
2022-09-03T03:18:47.308Z,1.05
2022-09-03T03:20:18.796Z,1.07
2022-09-03T03:21:50.294Z,1.26
2022-09-03T03:23:21.579Z,1.06
2022-09-03T03:24:53.080Z,1.19
2022-09-03T03:26:24.375Z,1.13
2022-09-03T03:27:55.802Z,1.11
2022-09-03T03:29:27.173Z,1.12
2022-09-03T03:30:58.556Z,1.32
2022-09-03T03:32:29.919Z,1.17
2022-09-03T03:34:01.239Z,1.14
2022-09-03T03:35:32.799Z,1.15
2022-09-03T03:37:04.156Z,1.15
2022-09-03T03:38:35.513Z,1.26
2022-09-03T03:40:06.852Z,1.27
2022-09-03T03:41:38.386Z,1.08
2022-09-03T03:43:09.637Z,1.18
2022-09-03T03:44:41.087Z,1.07
2022-09-03T03:46:12.440Z,1.02
2022-09-03T03:47:44.452Z,1.10
2022-09-03T03:49:15.789Z,1.12
2022-09-03T03:50:52.300Z,1.12
2022-09-03T03:52:23.624Z,1.09
2022-09-03T03:53:54.991Z,1.16
2022-09-03T03:55:27.205Z,1.22
2022-09-03T03:56:58.600Z,1.34
2022-09-03T03:58:29.973Z,1.33
2022-09-03T04:00:01.661Z,1.33
2022-09-03T04:01:33.156Z,1.45
2022-09-03T04:03:04.563Z,1.38
2022-09-03T04:04:35.981Z,1.38
2022-09-03T04:06:07.382Z,1.57
2022-09-03T04:07:38.689Z,1.56
2022-09-03T04:09:09.927Z,1.32
2022-09-03T04:10:41.371Z,1.35
2022-09-03T04:12:12.935Z,1.57
2022-09-03T04:13:44.316Z,1.33
2022-09-03T04:15:15.792Z,1.45
2022-09-03T04:16:47.181Z,1.41
2022-09-03T04:18:18.679Z,1.43
2022-09-03T04:19:50.304Z,1.41
2022-09-03T04:21:21.654Z,1.37
2022-09-03T04:22:53.241Z,1.35
2022-09-03T04:24:24.614Z,1.29
2022-09-03T04:25:55.894Z,1.46
2022-09-03T04:27:27.181Z,1.42
2022-09-03T04:28:58.527Z,1.51
2022-09-03T04:30:29.904Z,1.41
2022-09-03T04:32:02.034Z,1.34
2022-09-03T04:33:34.737Z,1.32
2022-09-03T04:35:06.084Z,1.56
2022-09-03T04:36:37.422Z,1.34
2022-09-03T04:38:08.803Z,1.36
2022-09-03T04:39:40.201Z,1.26
2022-09-03T04:41:11.518Z,1.16
2022-09-03T04:42:42.917Z,1.41
2022-09-03T04:44:14.183Z,1.36
2022-09-03T04:45:45.588Z,1.40
2022-09-03T04:47:17.078Z,1.10
2022-09-03T04:48:48.567Z,1.20
2022-09-03T04:50:19.963Z,1.28
2022-09-03T04:51:51.248Z,1.33
2022-09-03T04:53:22.617Z,1.26
2022-09-03T04:54:53.919Z,1.27
2022-09-03T04:56:25.286Z,1.28
2022-09-03T04:57:56.760Z,1.41
2022-09-03T04:59:28.222Z,1.29
2022-09-03T05:00:59.654Z,1.11
2022-09-03T05:03:05.399Z,1.20
2022-09-03T05:04:36.907Z,1.25
2022-09-03T05:06:08.442Z,1.33
2022-09-03T05:07:39.768Z,1.32
2022-09-03T05:09:11.090Z,1.48
2022-09-03T05:10:42.456Z,1.42
2022-09-03T05:12:13.887Z,1.51
2022-09-03T05:13:45.822Z,1.32
2022-09-03T05:15:17.202Z,1.18
2022-09-03T05:16:53.199Z,1.40
2022-09-03T05:18:25.074Z,1.17
2022-09-03T05:19:56.818Z,1.58
2022-09-03T05:21:28.287Z,1.36
2022-09-03T05:22:59.994Z,1.38
2022-09-03T05:24:31.422Z,1.67
2022-09-03T05:26:03.164Z,1.28
2022-09-03T05:27:34.595Z,1.26
2022-09-03T05:29:06.046Z,1.39
2022-09-03T05:30:37.657Z,1.40
2022-09-03T05:32:09.003Z,1.39
2022-09-03T05:33:40.906Z,1.34
2022-09-03T05:35:12.341Z,1.16
2022-09-03T05:36:44.052Z,1.32
2022-09-03T05:38:15.803Z,1.39
2022-09-03T05:39:47.445Z,1.26
2022-09-03T05:41:18.821Z,1.33
2022-09-03T05:42:51.035Z,1.37
2022-09-03T05:44:22.295Z,1.31
2022-09-03T05:45:53.950Z,1.67
2022-09-03T05:47:25.532Z,1.35
2022-09-03T05:48:56.930Z,1.28
2022-09-03T05:50:28.766Z,1.29
2022-09-03T05:52:00.436Z,1.30
2022-09-03T05:53:31.994Z,1.30
2022-09-03T05:55:03.250Z,1.46
2022-09-03T05:56:34.955Z,1.38
2022-09-03T05:58:06.455Z,1.62
2022-09-03T05:59:38.050Z,1.27
2022-09-03T06:01:09.914Z,1.32
2022-09-03T06:02:41.505Z,1.33
2022-09-03T06:04:13.116Z,1.24
2022-09-03T06:05:44.419Z,1.32
2022-09-03T06:07:17.515Z,1.39
2022-09-03T06:08:49.214Z,1.35
2022-09-03T06:10:25.455Z,1.21
2022-09-03T06:12:00.025Z,1.28
2022-09-03T06:13:35.432Z,1.34
2022-09-03T06:15:06.777Z,1.54
2022-09-03T06:16:38.342Z,1.31
2022-09-03T06:18:09.794Z,1.31
2022-09-03T06:19:41.607Z,1.34
2022-09-03T06:21:13.442Z,1.59
2022-09-03T06:22:45.683Z,1.24
2022-09-03T06:24:17.390Z,1.23
2022-09-03T06:25:48.865Z,1.24
2022-09-03T06:27:20.554Z,1.28
2022-09-03T06:28:52.293Z,1.49
2022-09-03T06:30:23.735Z,1.31
2022-09-03T06:31:55.356Z,1.38
2022-09-03T06:33:28.309Z,1.29
2022-09-03T06:34:59.616Z,1.35
2022-09-03T06:36:30.894Z,1.44
2022-09-03T06:38:02.581Z,1.39
2022-09-03T06:39:34.214Z,1.09
2022-09-03T06:41:05.682Z,1.22
2022-09-03T06:42:37.006Z,1.18
2022-09-03T06:44:23.789Z,1.26
2022-09-03T06:45:55.673Z,1.22
2022-09-03T06:47:27.021Z,1.22
2022-09-03T06:48:58.324Z,1.16
2022-09-03T06:50:34.042Z,1.22
2022-09-03T06:52:06.395Z,1.23
2022-09-03T06:53:37.762Z,1.29
2022-09-03T06:55:09.082Z,1.39
2022-09-03T06:56:40.981Z,1.38
2022-09-03T06:58:12.682Z,1.33
2022-09-03T06:59:44.057Z,1.27
2022-09-03T07:01:15.829Z,1.38
2022-09-03T07:02:47.328Z,1.18
2022-09-03T07:04:19.358Z,1.12
2022-09-03T07:05:51.749Z,1.23
2022-09-03T07:07:23.160Z,1.19
2022-09-03T07:08:54.656Z,1.12
2022-09-03T07:10:26.048Z,1.22
2022-09-03T07:11:57.573Z,1.23
2022-09-03T07:13:28.949Z,1.33
2022-09-03T07:15:00.646Z,1.17
2022-09-03T07:16:31.982Z,1.21
2022-09-03T07:18:03.320Z,1.47
2022-09-03T07:19:34.651Z,1.34
2022-09-03T07:21:05.986Z,1.33
2022-09-03T07:22:37.286Z,1.30
2022-09-03T07:24:08.769Z,1.29
2022-09-03T07:25:40.143Z,1.22
2022-09-03T07:27:14.948Z,1.54
2022-09-03T07:28:46.581Z,1.75
2022-09-03T07:30:17.887Z,3.03
2022-09-03T07:31:49.236Z,1.63
2022-09-03T07:33:25.805Z,1.90
2022-09-03T07:34:57.305Z,2.01
2022-09-03T07:36:29.040Z,1.84
2022-09-03T07:38:05.608Z,1.52
2022-09-03T07:39:36.979Z,1.30
2022-09-03T07:41:08.635Z,1.34
2022-09-03T07:42:40.092Z,1.48
2022-09-03T07:44:11.550Z,1.51
2022-09-03T07:45:42.905Z,1.33
2022-09-03T07:47:14.813Z,3.18
2022-09-03T07:48:46.458Z,4.23
2022-09-03T07:50:17.867Z,2.15
2022-09-03T07:51:49.308Z,1.28
2022-09-03T07:53:20.707Z,1.31
2022-09-03T07:54:52.123Z,1.61
2022-09-03T07:56:23.678Z,1.21
2022-09-03T07:57:55.079Z,1.18
2022-09-03T07:59:26.591Z,1.34
2022-09-03T08:00:58.087Z,1.31
2022-09-03T08:02:29.475Z,1.31
2022-09-03T08:04:01.063Z,1.23
2022-09-03T08:05:32.605Z,1.50
2022-09-03T08:07:03.973Z,1.22
2022-09-03T08:08:35.642Z,1.24
2022-09-03T08:10:07.177Z,1.23
2022-09-03T08:11:38.519Z,1.17
2022-09-03T08:13:09.993Z,1.15
2022-09-03T08:14:41.406Z,1.20
2022-09-03T08:16:12.779Z,1.26
2022-09-03T08:17:44.321Z,0.95
2022-09-03T08:19:15.758Z,1.16
2022-09-03T08:20:47.144Z,0.99
2022-09-03T08:22:18.588Z,1.00
2022-09-03T08:23:49.921Z,1.20
2022-09-03T08:25:21.310Z,1.14
2022-09-03T08:26:52.793Z,1.17
2022-09-03T08:28:24.496Z,1.07
2022-09-03T08:29:55.905Z,1.10
2022-09-03T08:31:27.458Z,1.01
2022-09-03T08:32:59.148Z,1.17
2022-09-03T08:34:30.493Z,1.12
2022-09-03T08:36:02.146Z,1.00
2022-09-03T08:37:33.552Z,0.97
2022-09-03T08:39:04.984Z,0.87
2022-09-03T08:40:36.395Z,1.11
2022-09-03T08:42:07.801Z,1.16
2022-09-03T08:43:39.254Z,1.05
2022-09-03T08:45:10.961Z,0.96
2022-09-03T08:46:42.513Z,1.11
2022-09-03T08:48:14.100Z,1.05
2022-09-03T08:49:45.692Z,1.11
2022-09-03T08:51:17.169Z,0.90
2022-09-03T08:52:48.769Z,1.13
2022-09-03T08:54:20.219Z,1.04
2022-09-03T08:55:51.606Z,1.00
2022-09-03T08:57:23.083Z,1.07
2022-09-03T08:58:54.458Z,1.01
2022-09-03T09:00:25.866Z,0.97
2022-09-03T09:01:57.405Z,1.02
2022-09-03T09:03:28.959Z,1.06
2022-09-03T09:05:00.491Z,0.99
2022-09-03T09:06:33.412Z,1.04
2022-09-03T09:08:04.892Z,1.13
2022-09-03T09:09:36.304Z,1.06
2022-09-03T09:11:07.748Z,1.16
2022-09-03T09:12:45.920Z,1.00
2022-09-03T09:14:18.289Z,0.96
2022-09-03T09:15:49.765Z,0.82
2022-09-03T09:17:21.669Z,0.95
2022-09-03T09:18:53.159Z,1.08
2022-09-03T09:20:24.641Z,1.11
2022-09-03T09:21:56.023Z,0.94
2022-09-03T09:23:27.423Z,1.16
2022-09-03T09:24:59.523Z,1.16
2022-09-03T09:26:30.993Z,1.06
2022-09-03T09:28:02.343Z,1.27
2022-09-03T09:29:33.758Z,1.29
2022-09-03T09:31:06.047Z,1.11
2022-09-03T09:32:37.618Z,1.13
2022-09-03T09:34:09.628Z,1.15
2022-09-03T09:35:41.291Z,1.08
2022-09-03T09:37:14.031Z,1.35
2022-09-03T09:38:45.785Z,1.09
2022-09-03T09:40:17.240Z,1.36
2022-09-03T09:41:48.777Z,1.27
2022-09-03T09:43:22.710Z,1.22
2022-09-03T09:44:54.100Z,1.15
2022-09-03T09:46:25.574Z,1.30
2022-09-03T09:47:57.102Z,1.40
2022-09-03T09:49:28.496Z,1.28
2022-09-03T09:50:59.904Z,1.10
2022-09-03T09:52:31.315Z,1.17
2022-09-03T09:54:02.708Z,1.20
2022-09-03T09:55:34.432Z,1.28
2022-09-03T09:57:05.845Z,1.57
2022-09-03T09:58:37.669Z,1.47
2022-09-03T10:00:21.388Z,1.51
2022-09-03T10:01:53.021Z,1.20
2022-09-03T10:03:24.443Z,1.17
2022-09-03T10:04:55.868Z,1.50
2022-09-03T10:06:27.312Z,1.14
2022-09-03T10:07:58.816Z,1.32
2022-09-03T10:09:31.313Z,1.26
2022-09-03T10:11:03.311Z,1.11
2022-09-03T10:12:34.781Z,1.26
2022-09-03T10:14:06.288Z,1.16
2022-09-03T10:15:37.793Z,1.21
2022-09-03T10:17:09.302Z,1.28
2022-09-03T10:18:40.726Z,1.10
2022-09-03T10:20:12.169Z,1.16
2022-09-03T10:21:44.198Z,1.25
2022-09-03T10:23:16.022Z,1.29
2022-09-03T10:24:47.444Z,1.42
2022-09-03T10:26:18.857Z,1.88
2022-09-03T10:27:50.417Z,1.41
2022-09-03T10:29:23.098Z,1.28
2022-09-03T10:30:54.680Z,1.34
2022-09-03T10:32:27.404Z,1.38
2022-09-03T10:34:08.362Z,1.32
2022-09-03T10:35:40.266Z,1.28
2022-09-03T10:37:12.073Z,1.23
2022-09-03T10:38:43.533Z,1.35
2022-09-03T10:40:15.159Z,1.17
2022-09-03T10:41:46.693Z,1.28
2022-09-03T10:43:18.169Z,1.23
2022-09-03T10:44:49.590Z,1.27
2022-09-03T10:46:24.181Z,1.27
2022-09-03T10:47:56.002Z,1.30
2022-09-03T10:49:27.459Z,1.24
2022-09-03T10:50:58.959Z,1.30
2022-09-03T10:52:30.444Z,1.20
2022-09-03T10:54:01.891Z,1.28
2022-09-03T10:55:33.326Z,1.25
2022-09-03T10:57:04.841Z,1.18
2022-09-03T10:58:36.524Z,1.07
2022-09-03T11:00:08.014Z,1.29
2022-09-03T11:01:39.662Z,1.31
2022-09-03T11:03:11.229Z,1.29
2022-09-03T11:04:42.955Z,1.33
2022-09-03T11:06:14.403Z,1.20
2022-09-03T11:07:46.015Z,1.22
2022-09-03T11:09:17.930Z,1.21
2022-09-03T11:10:50.081Z,1.05
2022-09-03T11:12:21.858Z,1.36
2022-09-03T11:13:53.743Z,1.37
2022-09-03T11:15:27.800Z,1.16
2022-09-03T11:16:59.519Z,1.25
2022-09-03T11:18:31.010Z,1.30
2022-09-03T11:20:02.601Z,1.40
2022-09-03T11:21:34.427Z,1.54
2022-09-03T11:23:06.308Z,1.30
2022-09-03T11:24:37.877Z,1.43
2022-09-03T11:26:09.464Z,1.31
2022-09-03T11:27:42.123Z,1.17
2022-09-03T11:29:13.762Z,1.12
2022-09-03T11:30:45.633Z,1.19
2022-09-03T11:32:17.248Z,1.45
2022-09-03T11:33:48.917Z,1.31
2022-09-03T11:35:21.347Z,1.28
2022-09-03T11:36:53.061Z,1.21
2022-09-03T11:38:25.145Z,1.30
2022-09-03T11:39:57.163Z,1.05
2022-09-03T11:41:28.828Z,1.20
2022-09-03T11:43:00.428Z,1.24
2022-09-03T11:44:32.055Z,1.24
2022-09-03T11:46:03.835Z,1.22
2022-09-03T11:47:35.586Z,1.22
2022-09-03T11:49:07.068Z,1.18
2022-09-03T11:50:38.624Z,1.27
2022-09-03T11:52:10.384Z,1.39
2022-09-03T11:53:41.985Z,1.14
2022-09-03T11:55:14.838Z,1.31
2022-09-03T11:56:46.716Z,1.25
2022-09-03T11:58:18.323Z,1.19
2022-09-03T11:59:55.100Z,1.29
2022-09-03T12:01:27.667Z,1.16
2022-09-03T12:02:59.623Z,1.20
2022-09-03T12:04:31.492Z,1.17
2022-09-03T12:06:03.260Z,1.02
2022-09-03T12:07:34.862Z,1.07
2022-09-03T12:09:06.510Z,1.16
2022-09-03T12:10:38.268Z,1.12
2022-09-03T12:12:09.974Z,0.93
2022-09-03T12:13:41.710Z,1.16
2022-09-03T12:15:13.320Z,1.25
2022-09-03T12:16:45.035Z,1.11
2022-09-03T12:18:20.377Z,1.05
2022-09-03T12:19:52.096Z,1.18
2022-09-03T12:21:23.675Z,1.06
2022-09-03T12:22:55.371Z,1.00
2022-09-03T12:24:27.357Z,1.16
2022-09-03T12:25:59.029Z,1.15
2022-09-03T12:27:30.688Z,1.05
2022-09-03T12:29:02.249Z,1.06
2022-09-03T12:30:33.969Z,1.01
2022-09-03T12:32:05.653Z,1.00
2022-09-03T12:33:37.409Z,1.05
2022-09-03T12:35:09.067Z,1.13
2022-09-03T12:36:40.729Z,1.34
2022-09-03T12:38:17.752Z,1.19
2022-09-03T12:40:08.026Z,1.34
2022-09-03T12:41:40.531Z,1.26
2022-09-03T12:43:39.245Z,1.05
2022-09-03T12:45:11.553Z,1.11
2022-09-03T12:46:43.426Z,1.11
2022-09-03T12:48:15.559Z,1.49
2022-09-03T12:49:47.195Z,1.31
2022-09-03T12:51:49.928Z,1.17
2022-09-03T12:53:24.848Z,1.25
2022-09-03T12:54:56.830Z,1.17
2022-09-03T12:56:28.410Z,1.21
2022-09-03T12:58:02.634Z,1.33
2022-09-03T12:59:34.601Z,1.17
2022-09-03T13:01:06.369Z,1.30
2022-09-03T13:02:38.033Z,1.40
2022-09-03T13:04:15.171Z,1.34
2022-09-03T13:05:46.918Z,1.35
2022-09-03T13:07:18.734Z,1.14
2022-09-03T13:08:50.361Z,1.25
2022-09-03T13:10:22.320Z,1.35
2022-09-03T13:11:53.872Z,1.28
2022-09-03T13:13:25.627Z,1.31
2022-09-03T13:14:57.305Z,1.30
2022-09-03T13:16:28.959Z,1.53
2022-09-03T13:18:00.602Z,1.38
2022-09-03T13:19:32.152Z,1.46
2022-09-03T13:21:03.704Z,1.22
2022-09-03T13:22:35.456Z,1.38
2022-09-03T13:24:07.733Z,1.30
2022-09-03T13:25:39.473Z,1.45
2022-09-03T13:27:11.142Z,1.35
2022-09-03T13:28:42.828Z,1.56
2022-09-03T13:30:14.597Z,1.39
2022-09-03T13:31:46.199Z,1.39
2022-09-03T13:33:18.012Z,1.29
2022-09-03T13:34:50.018Z,1.34
2022-09-03T13:36:21.855Z,1.38
2022-09-03T13:37:53.778Z,1.32
2022-09-03T13:39:25.331Z,1.47
2022-09-03T13:40:56.967Z,1.23
2022-09-03T13:42:28.494Z,1.31
2022-09-03T13:44:00.154Z,1.44
2022-09-03T13:45:31.749Z,1.54
2022-09-03T13:47:03.367Z,1.45
2022-09-03T13:48:35.044Z,1.31
2022-09-03T13:50:06.981Z,1.42
2022-09-03T13:51:38.627Z,1.45
2022-09-03T13:53:10.173Z,1.30
2022-09-03T13:54:48.982Z,1.41
2022-09-03T13:56:21.278Z,1.36
2022-09-03T13:57:53.095Z,1.25
2022-09-03T13:59:24.647Z,1.27
2022-09-03T14:00:56.400Z,1.38
2022-09-03T14:02:28.316Z,1.30
2022-09-03T14:03:59.936Z,1.28
2022-09-03T14:05:31.425Z,1.37
2022-09-03T14:07:02.988Z,1.46
2022-09-03T14:08:34.778Z,1.40
2022-09-03T14:10:10.502Z,1.43
2022-09-03T14:11:42.681Z,1.18
2022-09-03T14:13:14.209Z,1.31
2022-09-03T14:14:45.857Z,1.49
2022-09-03T14:16:17.493Z,1.38
2022-09-03T14:17:49.075Z,1.32
2022-09-03T14:19:20.771Z,1.23
2022-09-03T14:20:52.569Z,1.43
2022-09-03T14:22:24.141Z,1.31
2022-09-03T14:23:55.808Z,1.28
2022-09-03T14:25:27.391Z,1.41
2022-09-03T14:26:58.884Z,1.38
2022-09-03T14:28:30.665Z,1.45
2022-09-03T14:30:02.869Z,1.39
2022-09-03T14:31:34.473Z,1.39
2022-09-03T14:33:06.125Z,1.38
2022-09-03T14:34:37.676Z,1.37
2022-09-03T14:36:09.167Z,1.34
2022-09-03T14:37:41.260Z,1.33
2022-09-03T14:39:12.833Z,1.45
2022-09-03T14:40:44.446Z,1.44
2022-09-03T14:42:16.094Z,1.43
2022-09-03T14:43:47.953Z,1.38
2022-09-03T14:45:21.093Z,1.47
2022-09-03T14:46:52.617Z,1.43
2022-09-03T14:48:24.187Z,1.45
2022-09-03T14:49:55.734Z,1.37
2022-09-03T14:51:27.224Z,1.49
2022-09-03T14:52:58.754Z,1.38
2022-09-03T14:54:30.263Z,1.37
2022-09-03T14:56:01.842Z,1.16
2022-09-03T14:57:33.405Z,1.23
2022-09-03T14:59:04.939Z,1.40
2022-09-03T15:00:36.616Z,1.38
2022-09-03T15:02:08.213Z,1.18
2022-09-03T15:03:39.991Z,1.22
2022-09-03T15:05:12.133Z,1.19
2022-09-03T15:06:44.004Z,1.24
2022-09-03T15:08:15.594Z,1.31
2022-09-03T15:09:48.550Z,1.22
2022-09-03T15:11:20.240Z,1.52
2022-09-03T15:12:51.789Z,1.26
2022-09-03T15:14:23.365Z,1.24
2022-09-03T15:15:56.992Z,1.23
2022-09-03T15:17:28.483Z,1.81
2022-09-03T15:19:00.006Z,1.32
2022-09-03T15:20:31.616Z,1.24
2022-09-03T15:22:03.216Z,1.38
2022-09-03T15:23:34.763Z,1.10
2022-09-03T15:25:06.246Z,1.29
2022-09-03T15:26:37.817Z,1.16
2022-09-03T15:28:09.406Z,1.32
2022-09-03T15:29:40.983Z,1.13
2022-09-03T15:31:12.706Z,1.34
2022-09-03T15:32:44.310Z,1.23
2022-09-03T15:34:16.003Z,1.26
2022-09-03T15:35:47.534Z,1.44
2022-09-03T15:37:19.043Z,1.28
2022-09-03T15:38:50.550Z,1.22
2022-09-03T15:40:22.256Z,1.24
2022-09-03T15:41:53.911Z,1.31
2022-09-03T15:43:25.577Z,1.28
2022-09-03T15:44:57.233Z,1.28
2022-09-03T15:46:28.738Z,1.21
2022-09-03T15:48:00.250Z,1.30
2022-09-03T15:49:31.759Z,1.27
2022-09-03T15:51:03.252Z,1.25
2022-09-03T15:52:34.988Z,1.32
2022-09-03T15:54:06.530Z,1.18
2022-09-03T15:55:38.209Z,1.32
2022-09-03T15:57:09.761Z,1.11
2022-09-03T15:58:41.314Z,1.08
2022-09-03T16:00:12.792Z,1.11
2022-09-03T16:01:46.078Z,1.05
2022-09-03T16:03:23.161Z,1.08
2022-09-03T16:04:55.640Z,1.07
2022-09-03T16:06:27.549Z,1.06
2022-09-03T16:08:00.414Z,1.16
2022-09-03T16:09:31.932Z,1.06
2022-09-03T16:11:04.068Z,1.03
2022-09-03T16:12:35.585Z,1.07
2022-09-03T16:14:07.120Z,1.12
2022-09-03T16:15:38.759Z,1.08
2022-09-03T16:17:10.322Z,1.10
2022-09-03T16:18:43.195Z,1.05
2022-09-03T16:20:17.240Z,0.94
2022-09-03T16:21:48.937Z,0.90
2022-09-03T16:23:20.587Z,0.96
2022-09-03T16:24:52.281Z,0.96
2022-09-03T16:26:23.887Z,0.97
2022-09-03T16:27:55.632Z,0.96
2022-09-03T16:29:27.192Z,1.08
2022-09-03T16:30:58.904Z,1.00
2022-09-03T16:32:30.536Z,0.99
2022-09-03T16:34:02.162Z,1.04
2022-09-03T16:35:33.791Z,0.91
2022-09-03T16:37:05.512Z,1.00
2022-09-03T16:38:37.271Z,1.01
2022-09-03T16:40:08.895Z,0.96
2022-09-03T16:41:40.439Z,1.09
2022-09-03T16:43:38.875Z,1.18
2022-09-03T16:45:11.990Z,1.10
2022-09-03T16:46:43.541Z,1.02
2022-09-03T16:48:15.211Z,1.04
2022-09-03T16:49:46.810Z,1.06
2022-09-03T16:51:19.299Z,1.06
2022-09-03T16:52:50.994Z,1.19
2022-09-03T16:56:28.971Z,0.99
2022-09-03T16:58:00.525Z,1.13
2022-09-03T16:59:32.049Z,1.31
2022-09-03T17:01:03.730Z,1.22
2022-09-03T17:02:41.477Z,1.25
2022-09-03T17:04:13.806Z,0.97
2022-09-03T17:05:45.325Z,1.24
2022-09-03T17:07:19.333Z,1.05
2022-09-03T17:08:50.891Z,1.14
2022-09-03T17:10:22.357Z,1.26
2022-09-03T17:11:53.867Z,1.17
2022-09-03T17:13:25.521Z,1.17
2022-09-03T17:14:57.045Z,1.14
2022-09-03T17:16:28.930Z,1.15
2022-09-03T17:18:00.560Z,1.05
2022-09-03T17:19:32.021Z,1.16
2022-09-03T17:21:03.477Z,1.05
2022-09-03T17:22:35.073Z,1.23
2022-09-03T17:24:06.590Z,1.24
2022-09-03T17:25:38.121Z,1.87
2022-09-03T17:27:09.624Z,2.19
2022-09-03T17:28:41.476Z,2.00
2022-09-03T17:30:12.997Z,1.81
2022-09-03T17:31:44.721Z,1.54
2022-09-03T17:33:16.560Z,1.85
2022-09-03T17:34:48.198Z,1.89
2022-09-03T17:36:19.960Z,1.95
2022-09-03T17:37:51.471Z,1.66
2022-09-03T17:39:23.061Z,1.54
2022-09-03T17:40:54.585Z,1.28
2022-09-03T17:42:26.126Z,1.26
2022-09-03T17:43:57.630Z,1.22
2022-09-03T17:45:29.265Z,1.17
2022-09-03T17:47:00.918Z,1.29
2022-09-03T17:48:32.478Z,1.34
2022-09-03T17:50:03.905Z,1.39
2022-09-03T17:51:35.373Z,1.34
2022-09-03T17:53:07.877Z,1.32
2022-09-03T17:54:39.330Z,1.49
2022-09-03T17:56:10.877Z,1.41
2022-09-03T17:57:42.417Z,1.36
2022-09-03T17:59:13.838Z,1.41
2022-09-03T18:00:45.280Z,1.40
2022-09-03T18:02:16.743Z,1.48
2022-09-03T18:03:48.525Z,1.56
2022-09-03T18:05:20.152Z,1.39
2022-09-03T18:06:51.590Z,1.46
2022-09-03T18:08:23.102Z,1.62
2022-09-03T18:09:54.523Z,1.72
2022-09-03T18:11:26.157Z,1.69
2022-09-03T18:13:03.040Z,1.58
2022-09-03T18:14:35.696Z,1.35
2022-09-03T18:16:07.254Z,1.34
2022-09-03T18:17:43.815Z,1.47
2022-09-03T18:19:16.355Z,1.45
2022-09-03T18:20:58.850Z,1.38
2022-09-03T18:22:40.214Z,1.51
2022-09-03T18:24:11.681Z,1.55
2022-09-03T18:25:43.175Z,1.39
2022-09-03T18:27:14.567Z,1.54
2022-09-03T18:28:46.038Z,1.39
2022-09-03T18:30:17.509Z,1.38
2022-09-03T18:31:49.017Z,1.34
2022-09-03T18:33:20.577Z,1.63
2022-09-03T18:34:52.082Z,1.42
2022-09-03T18:36:23.611Z,1.32
2022-09-03T18:37:55.040Z,1.57
2022-09-03T18:39:26.770Z,1.34
2022-09-03T18:40:58.473Z,1.42
2022-09-03T18:42:35.925Z,1.38
2022-09-03T18:44:27.955Z,1.35
2022-09-03T18:47:16.158Z,1.17
2022-09-03T18:49:35.189Z,1.36
2022-09-03T18:51:06.774Z,1.43
2022-09-03T18:52:38.213Z,1.44
2022-09-03T18:54:09.862Z,1.29
2022-09-03T18:55:41.574Z,1.28
2022-09-03T18:57:13.076Z,1.28
2022-09-03T18:58:44.865Z,1.37
2022-09-03T19:00:16.703Z,1.39
2022-09-03T19:01:48.278Z,1.30
2022-09-03T19:03:19.969Z,1.24
2022-09-03T19:04:51.407Z,1.37
2022-09-03T19:06:23.132Z,1.33
2022-09-03T19:08:00.111Z,1.30
2022-09-03T19:09:32.365Z,1.30
2022-09-03T19:11:04.179Z,1.34
2022-09-03T19:12:41.123Z,1.40
2022-09-03T19:14:17.908Z,1.41
2022-09-03T19:15:49.662Z,1.29
2022-09-03T19:17:21.192Z,1.37
2022-09-03T19:18:53.001Z,1.25
2022-09-03T19:20:24.868Z,1.27
2022-09-03T19:21:59.665Z,1.39
2022-09-03T19:23:31.646Z,1.31
2022-09-03T19:25:03.271Z,1.44
2022-09-03T19:26:34.819Z,1.48
2022-09-03T19:28:06.576Z,1.53
2022-09-03T19:29:38.027Z,1.26
2022-09-03T19:31:11.137Z,1.34
2022-09-03T19:32:42.783Z,1.34
2022-09-03T19:34:14.471Z,1.40
2022-09-03T19:35:46.280Z,1.39
2022-09-03T19:37:23.015Z,1.31
2022-09-03T19:38:54.508Z,1.23
2022-09-03T19:40:26.055Z,1.18
2022-09-03T19:41:57.622Z,1.21
2022-09-03T19:43:33.642Z,1.24
2022-09-03T19:45:07.977Z,1.40
2022-09-03T19:46:44.536Z,1.10
2022-09-03T19:48:16.370Z,1.15
2022-09-03T19:49:47.933Z,1.05
2022-09-03T19:51:19.895Z,1.14
2022-09-03T19:52:51.453Z,1.61
2022-09-03T19:54:23.155Z,1.62
2022-09-03T19:55:55.056Z,1.58
2022-09-03T19:57:27.496Z,2.20
2022-09-03T19:59:03.869Z,1.36
2022-09-03T20:00:35.942Z,1.93
2022-09-03T20:02:08.169Z,1.84
2022-09-03T20:03:40.141Z,1.75
2022-09-03T20:05:12.216Z,1.43
2022-09-03T20:06:44.471Z,1.23
2022-09-03T20:08:16.181Z,1.07
2022-09-03T20:09:48.227Z,0.96
2022-09-03T20:11:21.097Z,0.94
2022-09-03T20:12:52.653Z,0.97
2022-09-03T20:14:24.801Z,1.03
2022-09-03T20:15:58.827Z,0.91
2022-09-03T20:17:30.731Z,0.90
2022-09-03T20:19:02.295Z,1.02
2022-09-03T20:20:33.890Z,1.03
2022-09-03T20:22:25.619Z,1.09
2022-09-03T20:23:57.433Z,0.94
2022-09-03T20:25:28.878Z,1.01
2022-09-03T20:27:00.298Z,1.06
2022-09-03T20:28:31.775Z,1.26
2022-09-03T20:30:03.222Z,1.46